sensor_id;sensor_type;location;lat;lon;timestamp;P1;durP1;ratioP1;P2;durP2;ratioP2
26838;SDS011;40088;51.214;6.786;2023-04-24T00:05:26;1.02;;;0.95;;
26838;SDS011;40088;51.214;6.786;2023-04-24T00:15:26;1.13;;;0.95;;
26838;SDS011;40088;51.214;6.786;2023-04-24T00:25:26;1.02;;;0.90;;
26838;SDS011;40088;51.214;6.786;2023-04-24T00:35:27;1.13;;;1.00;;
26838;SDS011;40088;51.214;6.786;2023-04-24T00:45:27;1.40;;;0.70;;
26838;SDS011;40088;51.214;6.786;2023-04-24T00:55:27;1.00;;;0.90;;
26838;SDS011;40088;51.214;6.786;2023-04-24T01:05:28;1.20;;;0.90;;
26838;SDS011;40088;51.214;6.786;2023-04-24T01:15:29;1.20;;;1.10;;
26838;SDS011;40088;51.214;6.786;2023-04-24T01:25:29;1.08;;;0.98;;
26838;SDS011;40088;51.214;6.786;2023-04-24T01:35:30;1.70;;;1.40;;
26838;SDS011;40088;51.214;6.786;2023-04-24T01:45:31;2.75;;;1.20;;
26838;SDS011;40088;51.214;6.786;2023-04-24T01:55:31;1.50;;;1.40;;
26838;SDS011;40088;51.214;6.786;2023-04-24T02:05:32;1.42;;;1.20;;
26838;SDS011;40088;51.214;6.786;2023-04-24T02:15:32;4.13;;;1.80;;
26838;SDS011;40088;51.214;6.786;2023-04-24T02:25:33;2.00;;;1.63;;
26838;SDS011;40088;51.214;6.786;2023-04-24T02:35:33;1.98;;;1.60;;
26838;SDS011;40088;51.214;6.786;2023-04-24T02:45:33;2.63;;;1.95;;
26838;SDS011;40088;51.214;6.786;2023-04-24T02:55:34;3.88;;;2.05;;
26838;SDS011;40088;51.214;6.786;2023-04-24T03:05:35;2.50;;;1.60;;
26838;SDS011;40088;51.214;6.786;2023-04-24T03:15:35;2.70;;;1.83;;
26838;SDS011;40088;51.214;6.786;2023-04-24T03:25:36;3.93;;;2.17;;
26838;SDS011;40088;51.214;6.786;2023-04-24T03:35:36;2.80;;;1.67;;
26838;SDS011;40088;51.214;6.786;2023-04-24T03:45:37;3.00;;;2.20;;
26838;SDS011;40088;51.214;6.786;2023-04-24T03:55:37;2.65;;;1.80;;
26838;SDS011;40088;51.214;6.786;2023-04-24T04:05:37;2.00;;;1.67;;
26838;SDS011;40088;51.214;6.786;2023-04-24T04:15:38;3.90;;;2.33;;
26838;SDS011;40088;51.214;6.786;2023-04-24T04:25:38;2.33;;;1.80;;
26838;SDS011;40088;51.214;6.786;2023-04-24T04:35:38;2.47;;;2.03;;
26838;SDS011;40088;51.214;6.786;2023-04-24T04:45:38;3.38;;;2.10;;
26838;SDS011;40088;51.214;6.786;2023-04-24T04:55:40;2.25;;;1.90;;
26838;SDS011;40088;51.214;6.786;2023-04-24T05:05:40;3.20;;;1.67;;
26838;SDS011;40088;51.214;6.786;2023-04-24T05:15:41;2.75;;;1.80;;
26838;SDS011;40088;51.214;6.786;2023-04-24T05:25:41;3.08;;;1.70;;
26838;SDS011;40088;51.214;6.786;2023-04-24T05:35:41;2.47;;;1.90;;
26838;SDS011;40088;51.214;6.786;2023-04-24T05:45:46;2.17;;;1.60;;
26838;SDS011;40088;51.214;6.786;2023-04-24T05:55:47;2.85;;;1.80;;
26838;SDS011;40088;51.214;6.786;2023-04-24T06:05:49;2.35;;;1.80;;
26838;SDS011;40088;51.214;6.786;2023-04-24T06:15:50;2.27;;;2.07;;
26838;SDS011;40088;51.214;6.786;2023-04-24T06:25:50;2.17;;;1.70;;
26838;SDS011;40088;51.214;6.786;2023-04-24T06:35:51;2.35;;;1.77;;
26838;SDS011;40088;51.214;6.786;2023-04-24T06:45:51;2.58;;;1.75;;
26838;SDS011;40088;51.214;6.786;2023-04-24T06:55:52;2.00;;;1.50;;
26838;SDS011;40088;51.214;6.786;2023-04-24T07:05:52;2.17;;;1.67;;
26838;SDS011;40088;51.214;6.786;2023-04-24T07:15:53;1.55;;;1.35;;
26838;SDS011;40088;51.214;6.786;2023-04-24T07:25:55;2.15;;;1.63;;
26838;SDS011;40088;51.214;6.786;2023-04-24T07:35:55;1.73;;;1.48;;
26838;SDS011;40088;51.214;6.786;2023-04-24T07:45:56;2.05;;;1.33;;
26838;SDS011;40088;51.214;6.786;2023-04-24T07:55:56;2.15;;;1.20;;
26838;SDS011;40088;51.214;6.786;2023-04-24T08:05:57;2.08;;;1.27;;
26838;SDS011;40088;51.214;6.786;2023-04-24T08:15:57;1.00;;;0.90;;
26838;SDS011;40088;51.214;6.786;2023-04-24T08:25:57;1.60;;;1.00;;
26838;SDS011;40088;51.214;6.786;2023-04-24T08:35:58;1.65;;;1.00;;
26838;SDS011;40088;51.214;6.786;2023-04-24T08:46:00;2.63;;;1.20;;
26838;SDS011;40088;51.214;6.786;2023-04-24T08:56:01;2.15;;;1.20;;
26838;SDS011;40088;51.214;6.786;2023-04-24T09:06:02;1.40;;;1.15;;
26838;SDS011;40088;51.214;6.786;2023-04-24T09:16:05;2.43;;;1.30;;
26838;SDS011;40088;51.214;6.786;2023-04-24T09:26:06;2.30;;;1.23;;
26838;SDS011;40088;51.214;6.786;2023-04-24T09:36:09;1.83;;;1.48;;
26838;SDS011;40088;51.214;6.786;2023-04-24T09:46:09;2.40;;;1.27;;
26838;SDS011;40088;51.214;6.786;2023-04-24T09:56:11;3.70;;;1.50;;
26838;SDS011;40088;51.214;6.786;2023-04-24T10:06:13;1.73;;;1.50;;
26838;SDS011;40088;51.214;6.786;2023-04-24T10:16:13;2.03;;;1.40;;
26838;SDS011;40088;51.214;6.786;2023-04-24T10:26:14;1.85;;;1.50;;
26838;SDS011;40088;51.214;6.786;2023-04-24T10:36:17;3.10;;;1.80;;
26838;SDS011;40088;51.214;6.786;2023-04-24T10:46:19;2.35;;;1.70;;
26838;SDS011;40088;51.214;6.786;2023-04-24T10:56:21;7.43;;;2.15;;
26838;SDS011;40088;51.214;6.786;2023-04-24T11:06:28;4.03;;;1.90;;
26838;SDS011;40088;51.214;6.786;2023-04-24T11:26:57;3.97;;;1.80;;
26838;SDS011;40088;51.214;6.786;2023-04-24T11:36:58;3.63;;;1.88;;
26838;SDS011;40088;51.214;6.786;2023-04-24T11:47:00;3.47;;;2.00;;
26838;SDS011;40088;51.214;6.786;2023-04-24T11:57:03;5.10;;;2.10;;
26838;SDS011;40088;51.214;6.786;2023-04-24T12:07:06;4.47;;;2.33;;
26838;SDS011;40088;51.214;6.786;2023-04-24T12:17:08;5.00;;;2.30;;
26838;SDS011;40088;51.214;6.786;2023-04-24T12:27:18;3.92;;;2.28;;
26838;SDS011;40088;51.214;6.786;2023-04-24T12:37:20;4.35;;;2.20;;
26838;SDS011;40088;51.214;6.786;2023-04-24T12:47:21;4.43;;;2.08;;
26838;SDS011;40088;51.214;6.786;2023-04-24T12:57:22;3.85;;;2.03;;
26838;SDS011;40088;51.214;6.786;2023-04-24T13:07:23;4.80;;;2.40;;
26838;SDS011;40088;51.214;6.786;2023-04-24T13:17:25;5.05;;;2.03;;
26838;SDS011;40088;51.214;6.786;2023-04-24T13:27:25;7.40;;;2.15;;
26838;SDS011;40088;51.214;6.786;2023-04-24T13:37:25;6.07;;;1.83;;
26838;SDS011;40088;51.214;6.786;2023-04-24T13:47:26;6.03;;;1.70;;
26838;SDS011;40088;51.214;6.786;2023-04-24T13:57:26;5.35;;;1.95;;
26838;SDS011;40088;51.214;6.786;2023-04-24T14:07:28;5.28;;;2.08;;
26838;SDS011;40088;51.214;6.786;2023-04-24T14:17:28;2.38;;;1.58;;
26838;SDS011;40088;51.214;6.786;2023-04-24T14:27:29;1.88;;;1.40;;
26838;SDS011;40088;51.214;6.786;2023-04-24T14:37:30;3.22;;;1.30;;
26838;SDS011;40088;51.214;6.786;2023-04-24T14:47:30;2.13;;;1.30;;
26838;SDS011;40088;51.214;6.786;2023-04-24T14:57:31;4.82;;;1.50;;
26838;SDS011;40088;51.214;6.786;2023-04-24T15:07:31;3.45;;;1.40;;
26838;SDS011;40088;51.214;6.786;2023-04-24T15:17:31;4.18;;;1.40;;
26838;SDS011;40088;51.214;6.786;2023-04-24T15:27:50;3.70;;;1.60;;
26838;SDS011;40088;51.214;6.786;2023-04-24T15:37:50;2.65;;;1.40;;
26838;SDS011;40088;51.214;6.786;2023-04-24T15:47:50;1.83;;;1.05;;
26838;SDS011;40088;51.214;6.786;2023-04-24T15:57:51;3.08;;;1.40;;
26838;SDS011;40088;51.214;6.786;2023-04-24T16:07:51;2.15;;;1.20;;
26838;SDS011;40088;51.214;6.786;2023-04-24T16:17:51;1.90;;;1.30;;
26838;SDS011;40088;51.214;6.786;2023-04-24T16:27:52;2.17;;;1.20;;
26838;SDS011;40088;51.214;6.786;2023-04-24T16:37:52;2.25;;;1.17;;
26838;SDS011;40088;51.214;6.786;2023-04-24T16:47:52;3.10;;;1.45;;
26838;SDS011;40088;51.214;6.786;2023-04-24T16:57:53;1.90;;;1.10;;
26838;SDS011;40088;51.214;6.786;2023-04-24T17:07:53;1.95;;;1.27;;
26838;SDS011;40088;51.214;6.786;2023-04-24T17:17:53;2.95;;;1.60;;
26838;SDS011;40088;51.214;6.786;2023-04-24T17:27:53;3.45;;;1.30;;
26838;SDS011;40088;51.214;6.786;2023-04-24T17:37:54;3.17;;;1.38;;
26838;SDS011;40088;51.214;6.786;2023-04-24T17:47:55;1.65;;;1.40;;
26838;SDS011;40088;51.214;6.786;2023-04-24T17:57:56;3.30;;;1.40;;
26838;SDS011;40088;51.214;6.786;2023-04-24T18:07:56;1.75;;;1.27;;
26838;SDS011;40088;51.214;6.786;2023-04-24T18:17:57;2.88;;;1.52;;
26838;SDS011;40088;51.214;6.786;2023-04-24T18:27:57;2.17;;;1.40;;
26838;SDS011;40088;51.214;6.786;2023-04-24T18:37:58;3.33;;;1.60;;
26838;SDS011;40088;51.214;6.786;2023-04-24T18:47:58;2.20;;;1.40;;
26838;SDS011;40088;51.214;6.786;2023-04-24T18:57:58;2.03;;;1.50;;
26838;SDS011;40088;51.214;6.786;2023-04-24T19:07:58;3.25;;;1.55;;
26838;SDS011;40088;51.214;6.786;2023-04-24T19:17:59;52.00;;;9.65;;
26838;SDS011;40088;51.214;6.786;2023-04-24T19:27:59;35.60;;;6.60;;
26838;SDS011;40088;51.214;6.786;2023-04-24T19:38:00;28.02;;;5.93;;
26838;SDS011;40088;51.214;6.786;2023-04-24T19:48:00;40.53;;;7.07;;
26838;SDS011;40088;51.214;6.786;2023-04-24T19:58:01;28.42;;;5.30;;
26838;SDS011;40088;51.214;6.786;2023-04-24T20:08:01;40.90;;;6.07;;
26838;SDS011;40088;51.214;6.786;2023-04-24T20:18:02;17.05;;;3.90;;
26838;SDS011;40088;51.214;6.786;2023-04-24T20:28:02;13.90;;;4.07;;
26838;SDS011;40088;51.214;6.786;2023-04-24T20:38:02;13.60;;;3.35;;
26838;SDS011;40088;51.214;6.786;2023-04-24T20:48:03;8.07;;;3.15;;
26838;SDS011;40088;51.214;6.786;2023-04-24T20:58:04;6.88;;;2.85;;
26838;SDS011;40088;51.214;6.786;2023-04-24T21:08:05;8.05;;;3.08;;
26838;SDS011;40088;51.214;6.786;2023-04-24T21:18:05;9.10;;;3.30;;
26838;SDS011;40088;51.214;6.786;2023-04-24T21:28:05;11.68;;;3.45;;
26838;SDS011;40088;51.214;6.786;2023-04-24T21:38:06;4.97;;;2.38;;
26838;SDS011;40088;51.214;6.786;2023-04-24T21:48:07;4.78;;;2.40;;
26838;SDS011;40088;51.214;6.786;2023-04-24T21:58:07;7.45;;;2.67;;
26838;SDS011;40088;51.214;6.786;2023-04-24T22:08:07;5.10;;;2.38;;
26838;SDS011;40088;51.214;6.786;2023-04-24T22:18:09;4.97;;;2.50;;
26838;SDS011;40088;51.214;6.786;2023-04-24T22:28:11;6.22;;;2.90;;
26838;SDS011;40088;51.214;6.786;2023-04-24T22:38:11;5.45;;;2.58;;
26838;SDS011;40088;51.214;6.786;2023-04-24T22:48:12;7.47;;;2.78;;
26838;SDS011;40088;51.214;6.786;2023-04-24T22:58:13;7.93;;;2.90;;
26838;SDS011;40088;51.214;6.786;2023-04-24T23:08:14;6.28;;;2.75;;
26838;SDS011;40088;51.214;6.786;2023-04-24T23:18:14;5.47;;;2.88;;
26838;SDS011;40088;51.214;6.786;2023-04-24T23:28:15;5.93;;;2.97;;
26838;SDS011;40088;51.214;6.786;2023-04-24T23:38:17;6.93;;;2.90;;
26838;SDS011;40088;51.214;6.786;2023-04-24T23:48:17;5.18;;;2.65;;
26838;SDS011;40088;51.214;6.786;2023-04-24T23:58:17;6.32;;;2.60;;
